Time,TemperatureF,DewpointF,PressureIn,WindDirection,WindDirectionDegrees,WindSpeedMPH,WindSpeedGustMPH,Humidity,HourlyPrecipIn,Conditions,Clouds,dailyrainin,SoftwareType,DateUTC
2013-01-08 00:12:00,17.0,-99.9,29.63,North,-999,-999.0,-999.0,-999,-99.99,,,-99.99,,2013-01-08 09:12:00,
2013-01-08 00:33:00,-999.0,-99.9,29.64,NW,318,1.0,2.0,-999,-99.99,,,-99.99,,2013-01-08 09:33:00,
2013-01-08 00:42:00,17.0,-99.9,29.64,West,263,2.0,3.0,-999,-99.99,,,-99.99,,2013-01-08 09:42:00,
2013-01-08 00:53:00,-999.0,-99.9,29.64,NW,321,2.0,2.0,-999,-99.99,,,-99.99,,2013-01-08 09:53:00,
2013-01-08 01:03:00,-999.0,-99.9,29.65,North,3,1.0,1.0,-999,-99.99,,,-99.99,,2013-01-08 10:03:00,
2013-01-08 01:12:00,-999.0,-99.9,29.66,NW,318,1.0,2.0,-999,-99.99,,,-99.99,,2013-01-08 10:12:00,
2013-01-08 01:22:00,-999.0,-99.9,29.66,NE,39,0.0,2.0,-999,-99.99,,,-99.99,,2013-01-08 10:22:00,
2013-01-08 01:33:00,-999.0,-99.9,29.67,North,10,1.0,2.0,-999,-99.99,,,-99.99,,2013-01-08 10:33:00,
2013-01-08 01:43:00,17.0,-99.9,29.67,NNE,21,1.0,2.0,-999,-99.99,,,-99.99,,2013-01-08 10:43:00,
2013-01-08 01:53:00,-999.0,-99.9,29.67,NNE,26,1.0,2.0,-999,-99.99,,,-99.99,,2013-01-08 10:53:00,
2013-01-08 02:12:00,17.0,-99.9,29.68,North,-999,-999.0,-999.0,-999,-99.99,,,-99.99,,2013-01-08 11:12:00,
2013-01-08 02:43:00,17.0,-99.9,29.69,SW,220,-999.0,1.0,-999,-99.99,,,-99.99,,2013-01-08 11:43:00,
2013-01-08 02:53:00,-999.0,-99.9,29.70,SW,221,1.0,1.0,-999,-99.99,,,-99.99,,2013-01-08 11:53:00,
2013-01-08 03:12:00,18.0,-99.9,29.70,SSW,210,2.0,2.0,-999,-99.99,,,-99.99,,2013-01-08 12:12:00,
2013-01-08 03:22:00,-999.0,-99.9,29.71,WSW,238,1.0,2.0,-999,-99.99,,,-99.99,,2013-01-08 12:22:00,
2013-01-08 03:33:00,-999.0,-99.9,29.71,West,273,1.0,2.0,-999,-99.99,,,-99.99,,2013-01-08 12:33:00,
2013-01-08 03:43:00,18.0,-99.9,29.71,WNW,284,2.0,2.0,-999,-99.99,,,-99.99,,2013-01-08 12:43:00,
2013-01-08 03:53:00,-999.0,-99.9,29.71,West,273,1.0,2.0,-999,-99.99,,,-99.99,,2013-01-08 12:53:00,
2013-01-08 04:03:00,-999.0,-99.9,29.72,West,261,2.0,3.0,-999,-99.99,,,-99.99,,2013-01-08 13:03:00,
2013-01-08 04:13:00,17.0,-99.9,29.72,WNW,295,2.0,3.0,-999,-99.99,,,-99.99,,2013-01-08 13:13:00,
2013-01-08 04:22:00,-999.0,-99.9,29.72,WNW,299,1.0,2.0,-999,-99.99,,,-99.99,,2013-01-08 13:22:00,
2013-01-08 04:33:00,-999.0,-99.9,29.73,West,278,2.0,2.0,-999,-99.99,,,-99.99,,2013-01-08 13:33:00,
2013-01-08 04:43:00,-999.0,-99.9,29.73,West,266,2.0,2.0,-999,-99.99,,,-99.99,,2013-01-08 13:43:00,
2013-01-08 04:53:00,18.0,-99.9,29.73,WNW,291,2.0,2.0,-999,-99.99,,,-99.99,,2013-01-08 13:53:00,
2013-01-08 05:03:00,-999.0,-99.9,29.74,WNW,294,1.0,2.0,-999,-99.99,,,-99.99,,2013-01-08 14:03:00,
2013-01-08 05:13:00,17.0,-99.9,29.74,West,263,1.0,2.0,-999,-99.99,,,-99.99,,2013-01-08 14:13:00,
2013-01-08 05:23:00,-999.0,-99.9,29.74,NNW,347,1.0,2.0,-999,-99.99,,,-99.99,,2013-01-08 14:23:00,
2013-01-08 05:43:00,17.0,-99.9,29.75,NW,321,1.0,1.0,-999,-99.99,,,-99.99,,2013-01-08 14:43:00,
2013-01-08 05:53:00,-999.0,-99.9,29.75,NNW,338,2.0,2.0,-999,-99.99,,,-99.99,,2013-01-08 14:53:00,
2013-01-08 06:03:00,-999.0,-99.9,29.76,North,2,2.0,2.0,-999,-99.99,,,-99.99,,2013-01-08 15:03:00,
2013-01-08 06:12:00,-999.0,-99.9,29.76,NNE,22,2.0,3.0,-999,-99.99,,,-99.99,,2013-01-08 15:12:00,
2013-01-08 06:23:00,17.0,-99.9,29.76,NNE,31,2.0,2.0,-999,-99.99,,,-99.99,,2013-01-08 15:23:00,
2013-01-08 06:33:00,-999.0,-99.9,29.77,West,277,2.0,3.0,-999,-99.99,,,-99.99,,2013-01-08 15:33:00,
2013-01-08 06:43:00,17.0,-99.9,29.77,WNW,293,2.0,3.0,-999,-99.99,,,-99.99,,2013-01-08 15:43:00,
2013-01-08 06:53:00,-999.0,-99.9,29.77,West,270,2.0,2.0,-999,-99.99,,,-99.99,,2013-01-08 15:53:00,
2013-01-08 07:03:00,-999.0,-99.9,29.78,WNW,283,5.0,6.0,-999,-99.99,,,-99.99,,2013-01-08 16:03:00,
2013-01-08 07:13:00,16.0,-99.9,29.78,WNW,282,6.0,6.0,-999,-99.99,,,-99.99,,2013-01-08 16:13:00,
2013-01-08 07:23:00,-999.0,-99.9,29.78,WNW,286,6.0,7.0,-999,-99.99,,,-99.99,,2013-01-08 16:23:00,
2013-01-08 07:34:00,-999.0,-99.9,29.78,WNW,288,6.0,6.0,-999,-99.99,,,-99.99,,2013-01-08 16:34:00,
2013-01-08 07:43:00,-999.0,-99.9,29.79,West,278,6.0,7.0,-999,-99.99,,,-99.99,,2013-01-08 16:43:00,
2013-01-08 07:53:00,-999.0,-99.9,29.79,WNW,283,5.0,7.0,-999,-99.99,,,-99.99,,2013-01-08 16:53:00,
2013-01-08 08:04:00,-999.0,-99.9,29.79,WNW,293,4.0,5.0,-999,-99.99,,,-99.99,,2013-01-08 17:04:00,
2013-01-08 08:13:00,15.0,-99.9,29.79,West,280,5.0,6.0,-999,-99.99,,,-99.99,,2013-01-08 17:13:00,
2013-01-08 08:23:00,-999.0,-99.9,29.80,West,276,5.0,5.0,-999,-99.99,,,-99.99,,2013-01-08 17:23:00,
2013-01-08 08:34:00,-999.0,-99.9,29.80,WNW,292,4.0,6.0,-999,-99.99,,,-99.99,,2013-01-08 17:34:00,
2013-01-08 08:43:00,14.0,-99.9,29.80,WNW,293,4.0,5.0,-999,-99.99,,,-99.99,,2013-01-08 17:43:00,
2013-01-08 08:54:00,-999.0,-99.9,29.81,WNW,283,5.0,6.0,-999,-99.99,,,-99.99,,2013-01-08 17:54:00,
2013-01-08 09:04:00,-999.0,-99.9,29.81,WNW,284,6.0,7.0,-999,-99.99,,,-99.99,,2013-01-08 18:04:00,
2013-01-08 09:13:00,-999.0,-99.9,29.82,WNW,288,7.0,8.0,-999,-99.99,,,-99.99,,2013-01-08 18:13:00,
2013-01-08 09:24:00,-999.0,-99.9,29.82,WNW,286,5.0,7.0,-999,-99.99,,,-99.99,,2013-01-08 18:24:00,
2013-01-08 09:33:00,-999.0,-99.9,29.83,WNW,295,6.0,6.0,-999,-99.99,,,-99.99,,2013-01-08 18:33:00,
2013-01-08 09:43:00,10.0,-99.9,29.83,WNW,285,6.0,6.0,-999,-99.99,,,-99.99,,2013-01-08 18:43:00,
2013-01-08 09:53:00,-999.0,-99.9,29.83,WNW,294,4.0,6.0,-999,-99.99,,,-99.99,,2013-01-08 18:53:00,
2013-01-08 10:03:00,-999.0,-99.9,29.83,WNW,289,4.0,4.0,-999,-99.99,,,-99.99,,2013-01-08 19:03:00,
2013-01-08 10:12:00,8.0,-99.9,29.83,WNW,289,3.0,4.0,-999,-99.99,,,-99.99,,2013-01-08 19:12:00,
2013-01-08 10:23:00,-999.0,-99.9,29.84,West,266,3.0,4.0,-999,-99.99,,,-99.99,,2013-01-08 19:23:00,
2013-01-08 10:33:00,-999.0,-99.9,29.85,WNW,288,4.0,5.0,-999,-99.99,,,-99.99,,2013-01-08 19:33:00,
2013-01-08 10:43:00,-999.0,-99.9,29.85,WNW,302,3.0,4.0,-999,-99.99,,,-99.99,,2013-01-08 19:43:00,
2013-01-08 10:53:00,-999.0,-99.9,29.85,WNW,290,4.0,5.0,-999,-99.99,,,-99.99,,2013-01-08 19:53:00,
2013-01-08 11:03:00,-999.0,-99.9,29.85,WNW,296,4.0,4.0,-999,-99.99,,,-99.99,,2013-01-08 20:03:00,
2013-01-08 11:12:00,8.0,-99.9,29.86,WNW,297,3.0,5.0,-999,-99.99,,,-99.99,,2013-01-08 20:12:00,
2013-01-08 11:23:00,-999.0,-99.9,29.86,NW,308,4.0,5.0,-999,-99.99,,,-99.99,,2013-01-08 20:23:00,
2013-01-08 11:33:00,-999.0,-99.9,29.87,NW,310,3.0,4.0,-999,-99.99,,,-99.99,,2013-01-08 20:33:00,
2013-01-08 11:43:00,7.0,-99.9,29.87,WNW,302,2.0,3.0,-999,-99.99,,,-99.99,,2013-01-08 20:43:00,
2013-01-08 11:54:00,-999.0,-99.9,29.87,WNW,286,3.0,4.0,-999,-99.99,,,-99.99,,2013-01-08 20:54:00,
2013-01-08 12:03:00,-999.0,-99.9,29.88,West,281,4.0,4.0,-999,-99.99,,,-99.99,,2013-01-08 21:03:00,
2013-01-08 12:13:00,6.0,-99.9,29.88,WNW,299,3.0,4.0,-999,-99.99,,,-99.99,,2013-01-08 21:13:00,
2013-01-08 12:23:00,-999.0,-99.9,29.89,WNW,282,4.0,4.0,-999,-99.99,,,-99.99,,2013-01-08 21:23:00,
2013-01-08 12:33:00,-999.0,-99.9,29.89,NW,314,2.0,2.0,-999,-99.99,,,-99.99,,2013-01-08 21:33:00,
2013-01-08 12:43:00,7.0,-99.9,29.90,NW,308,2.0,3.0,-999,-99.99,,,-99.99,,2013-01-08 21:43:00,
2013-01-08 12:53:00,-999.0,-99.9,29.90,West,281,2.0,3.0,-999,-99.99,,,-99.99,,2013-01-08 21:53:00,
2013-01-08 13:04:00,-999.0,-99.9,29.91,West,273,2.0,2.0,-999,-99.99,,,-99.99,,2013-01-08 22:04:00,
2013-01-08 13:13:00,8.0,-99.9,29.91,WNW,289,2.0,3.0,-999,-99.99,,,-99.99,,2013-01-08 22:13:00,
2013-01-08 13:23:00,-999.0,-99.9,29.91,NW,325,2.0,3.0,-999,-99.99,,,-99.99,,2013-01-08 22:23:00,
2013-01-08 13:33:00,-999.0,-99.9,29.91,NNW,329,2.0,3.0,-999,-99.99,,,-99.99,,2013-01-08 22:33:00,
2013-01-08 13:43:00,9.0,-99.9,29.92,NW,304,1.0,2.0,-999,-99.99,,,-99.99,,2013-01-08 22:43:00,
2013-01-08 13:53:00,-999.0,-99.9,29.92,WSW,258,2.0,3.0,-999,-99.99,,,-99.99,,2013-01-08 22:53:00,
2013-01-08 14:03:00,-999.0,-99.9,29.92,WNW,297,3.0,4.0,-999,-99.99,,,-99.99,,2013-01-08 23:03:00,
2013-01-08 14:13:00,-999.0,-99.9,29.93,NW,308,3.0,4.0,-999,-99.99,,,-99.99,,2013-01-08 23:13:00,
2013-01-08 14:23:00,10.0,-99.9,29.93,NW,311,4.0,4.0,-999,-99.99,,,-99.99,,2013-01-08 23:23:00,
2013-01-08 14:33:00,-999.0,-99.9,29.93,West,274,5.0,6.0,-999,-99.99,,,-99.99,,2013-01-08 23:33:00,
2013-01-08 14:43:00,10.0,-99.9,29.93,WNW,291,6.0,6.0,-999,-99.99,,,-99.99,,2013-01-08 23:43:00,
2013-01-08 14:53:00,-999.0,-99.9,29.93,NW,304,4.0,5.0,-999,-99.99,,,-99.99,,2013-01-08 23:53:00,
2013-01-08 15:03:00,-999.0,-99.9,29.94,WNW,293,5.0,6.0,-999,-99.99,,,-99.99,,2013-01-09 00:03:00,
2013-01-08 15:13:00,11.0,-99.9,29.94,WNW,297,4.0,6.0,-999,-99.99,,,-99.99,,2013-01-09 00:13:00,
2013-01-08 15:22:00,-999.0,-99.9,29.93,NW,309,5.0,6.0,-999,-99.99,,,-99.99,,2013-01-09 00:22:00,
2013-01-08 15:33:00,-999.0,-99.9,29.93,NW,314,3.0,4.0,-999,-99.99,,,-99.99,,2013-01-09 00:33:00,
2013-01-08 15:43:00,-999.0,-99.9,29.93,NW,316,1.0,2.0,-999,-99.99,,,-99.99,,2013-01-09 00:43:00,
2013-01-08 15:53:00,12.0,-99.9,29.94,West,260,1.0,1.0,-999,-99.99,,,-99.99,,2013-01-09 00:53:00,
2013-01-08 16:02:00,-999.0,-99.9,29.94,NW,313,2.0,2.0,-999,-99.99,,,-99.99,,2013-01-09 01:02:00,
2013-01-08 16:12:00,12.0,-99.9,29.94,NNW,335,2.0,3.0,-999,-99.99,,,-99.99,,2013-01-09 01:12:00,
2013-01-08 16:22:00,-999.0,-99.9,29.94,NW,319,3.0,4.0,-999,-99.99,,,-99.99,,2013-01-09 01:22:00,
2013-01-08 16:33:00,-999.0,-99.9,29.94,WNW,298,2.0,4.0,-999,-99.99,,,-99.99,,2013-01-09 01:33:00,
2013-01-08 16:43:00,13.0,-99.9,29.94,NW,318,4.0,5.0,-999,-99.99,,,-99.99,,2013-01-09 01:43:00,
2013-01-08 16:53:00,-999.0,-99.9,29.95,West,279,2.0,4.0,-999,-99.99,,,-99.99,,2013-01-09 01:53:00,
2013-01-08 17:02:00,-999.0,-99.9,29.95,WNW,290,3.0,3.0,-999,-99.99,,,-99.99,,2013-01-09 02:02:00,
2013-01-08 17:12:00,-999.0,-99.9,29.96,WSW,250,4.0,5.0,-999,-99.99,,,-99.99,,2013-01-09 02:12:00,
2013-01-08 17:23:00,13.0,-99.9,29.96,WSW,243,5.0,7.0,-999,-99.99,,,-99.99,,2013-01-09 02:23:00,
2013-01-08 17:33:00,-999.0,-99.9,29.96,WSW,254,6.0,7.0,-999,-99.99,,,-99.99,,2013-01-09 02:33:00,
2013-01-08 17:43:00,13.0,-99.9,29.96,West,261,6.0,8.0,-999,-99.99,,,-99.99,,2013-01-09 02:43:00,
2013-01-08 17:53:00,-999.0,-99.9,29.96,West,278,7.0,8.0,-999,-99.99,,,-99.99,,2013-01-09 02:53:00,
2013-01-08 18:03:00,-999.0,-99.9,29.96,WNW,288,5.0,7.0,-999,-99.99,,,-99.99,,2013-01-09 03:03:00,
2013-01-08 18:12:00,12.0,-99.9,29.96,WNW,289,5.0,6.0,-999,-99.99,,,-99.99,,2013-01-09 03:12:00,
2013-01-08 18:22:00,-999.0,-99.9,29.97,NW,304,6.0,7.0,-999,-99.99,,,-99.99,,2013-01-09 03:22:00,
2013-01-08 18:33:00,-999.0,-99.9,29.97,NW,318,4.0,5.0,-999,-99.99,,,-99.99,,2013-01-09 03:33:00,
2013-01-08 18:43:00,-999.0,-99.9,29.97,NW,324,3.0,4.0,-999,-99.99,,,-99.99,,2013-01-09 03:43:00,
2013-01-08 18:53:00,-999.0,-99.9,29.97,NW,318,2.0,2.0,-999,-99.99,,,-99.99,,2013-01-09 03:53:00,
2013-01-08 19:02:00,-999.0,-99.9,29.98,WNW,300,2.0,3.0,-999,-99.99,,,-99.99,,2013-01-09 04:02:00,
2013-01-08 19:12:00,11.0,-99.9,29.98,West,271,2.0,2.0,-999,-99.99,,,-99.99,,2013-01-09 04:12:00,
2013-01-08 19:23:00,-999.0,-99.9,29.98,West,272,2.0,2.0,-999,-99.99,,,-99.99,,2013-01-09 04:23:00,
2013-01-08 19:33:00,-999.0,-99.9,29.98,West,279,3.0,4.0,-999,-99.99,,,-99.99,,2013-01-09 04:33:00,
2013-01-08 19:43:00,12.0,-99.9,29.99,North,357,2.0,2.0,-999,-99.99,,,-99.99,,2013-01-09 04:43:00,
2013-01-08 19:53:00,-999.0,-99.9,29.99,North,355,3.0,4.0,-999,-99.99,,,-99.99,,2013-01-09 04:53:00,
2013-01-08 20:03:00,-999.0,-99.9,29.99,NE,34,1.0,2.0,-999,-99.99,,,-99.99,,2013-01-09 05:03:00,
2013-01-08 20:12:00,-999.0,-99.9,29.99,NNE,32,2.0,3.0,-999,-99.99,,,-99.99,,2013-01-09 05:12:00,
2013-01-08 20:22:00,-999.0,-99.9,29.99,NNE,27,3.0,4.0,-999,-99.99,,,-99.99,,2013-01-09 05:22:00,
2013-01-08 20:33:00,-999.0,-99.9,29.99,NNE,24,2.0,3.0,-999,-99.99,,,-99.99,,2013-01-09 05:33:00,
2013-01-08 20:43:00,12.0,-99.9,30.00,NNE,13,1.0,2.0,-999,-99.99,,,-99.99,,2013-01-09 05:43:00,
2013-01-08 20:53:00,-999.0,-99.9,29.99,NE,45,2.0,3.0,-999,-99.99,,,-99.99,,2013-01-09 05:53:00,
2013-01-08 21:02:00,-999.0,-99.9,30.00,ENE,72,1.0,2.0,-999,-99.99,,,-99.99,,2013-01-09 06:02:00,
2013-01-08 21:12:00,11.0,-99.9,30.00,East,85,1.0,2.0,-999,-99.99,,,-99.99,,2013-01-09 06:12:00,
2013-01-08 21:22:00,-999.0,-99.9,30.00,NE,40,2.0,2.0,-999,-99.99,,,-99.99,,2013-01-09 06:22:00,
2013-01-08 21:32:00,-999.0,-99.9,30.00,SE,133,2.0,4.0,-999,-99.99,,,-99.99,,2013-01-09 06:32:00,
2013-01-08 21:43:00,12.0,-99.9,30.00,SE,132,3.0,3.0,-999,-99.99,,,-99.99,,2013-01-09 06:43:00,
2013-01-08 21:53:00,-999.0,-99.9,30.00,ESE,103,2.0,3.0,-999,-99.99,,,-99.99,,2013-01-09 06:53:00,
2013-01-08 22:02:00,-999.0,-99.9,30.00,ENE,74,5.0,5.0,-999,-99.99,,,-99.99,,2013-01-09 07:02:00,
2013-01-08 22:12:00,-999.0,-99.9,30.01,East,97,5.0,6.0,-999,-99.99,,,-99.99,,2013-01-09 07:12:00,
2013-01-08 22:22:00,11.0,-99.9,30.01,East,96,5.0,6.0,-999,-99.99,,,-99.99,,2013-01-09 07:22:00,
2013-01-08 22:32:00,-999.0,-99.9,30.01,East,94,8.0,9.0,-999,-99.99,,,-99.99,,2013-01-09 07:32:00,
2013-01-08 22:42:00,11.0,-99.9,30.01,ESE,102,6.0,9.0,-999,-99.99,,,-99.99,,2013-01-09 07:42:00,
2013-01-08 22:53:00,-999.0,-99.9,30.01,East,94,7.0,8.0,-999,-99.99,,,-99.99,,2013-01-09 07:53:00,
2013-01-08 23:02:00,-999.0,-99.9,30.02,East,96,7.0,9.0,-999,-99.99,,,-99.99,,2013-01-09 08:02:00,
2013-01-08 23:12:00,10.0,-99.9,30.01,East,89,8.0,10.0,-999,-99.99,,,-99.99,,2013-01-09 08:12:00,
2013-01-08 23:22:00,-999.0,-99.9,30.02,East,93,8.0,10.0,-999,-99.99,,,-99.99,,2013-01-09 08:22:00,
2013-01-08 23:32:00,-999.0,-99.9,30.02,East,89,10.0,11.0,-999,-99.99,,,-99.99,,2013-01-09 08:32:00,
2013-01-08 23:43:00,-999.0,-99.9,30.02,East,93,9.0,10.0,-999,-99.99,,,-99.99,,2013-01-09 08:43:00,
2013-01-08 23:53:00,-999.0,-99.9,30.02,East,90,8.0,10.0,-999,-99.99,,,-99.99,,2013-01-09 08:53:00,